Terminal Aerodrome Forecast
Issued by NWS

Home | Current Version | Previous Version | Text Only | Print | Product List | Glossary On
Versions: 1 2 3 4 5 6 7 8 9 10 11 12 13 14 15 16 17 18 19 20 21 22
000
FTUS45 KVEF 210100 AAA
TAFVGT
TAF AMD
KVGT 210102Z 2101/2124 15012G20KT P6SM VCTS SCT090CB BKN120
     FM210400 18010KT P6SM SCT090 BKN120
     FM210800 35006KT P6SM SCT120
     FM212000 14005KT P6SM SCT090 SCT120 PROB30 2120/2124 P6SM -TSRA
      BKN090CB=

USA.gov is the U.S. government's official web portal to all federal, state and local government web resources and services.